This is the latest recevied weather packets stored in our database for station/object K0SNA. If no packets are shown the sender has not sent any weather packets the latest 10 day(s).
| Time | Temp. | Humidity | Pressure | Rain* | Wind** | Luminosity | Snow |
|---|---|---|---|---|---|---|---|
| 1777588350 | 10.56° C | 42% | 1016.6 hPa | 0 mm | - | 97 W/m² | - |
| 1777588046 | 10.56° C | 42% | 1016.4 hPa | 0 mm | - | 129 W/m² | - |
| 1777587736 | 10° C | 41% | 1016.6 hPa | 0 mm | - | 134 W/m² | - |
| 1777587430 | 10.56° C | 40% | 1016.6 hPa | 0 mm | - | 171 W/m² | - |
| 1777587127 | 10.56° C | 41% | 1016.6 hPa | 0 mm | - | 165 W/m² | - |
| 1777586823 | 10.56° C | 41% | 1016.7 hPa | 0 mm | - | 336 W/m² | - |
| 1777586518 | 10° C | 41% | 1016.7 hPa | 0 mm | - | 141 W/m² | - |
| 1777586214 | 10° C | 41% | 1016.5 hPa | 0 mm | - | 129 W/m² | - |
| 1777585912 | 10.56° C | 40% | 1016.5 hPa | 0 mm | - | 144 W/m² | - |
| 1777585606 | 10.56° C | 39% | 1016.5 hPa | 0 mm | - | 139 W/m² | - |
| 1777585301 | 10° C | 40% | 1016.5 hPa | 0 mm | - | 175 W/m² | - |
| 1777584996 | 10.56° C | 41% | 1016.5 hPa | 0 mm | - | 515 W/m² | - |
| 1777584694 | 10° C | 40% | 1016.6 hPa | 0 mm | - | 191 W/m² | - |
| 1777584391 | 10.56° C | 39% | 1016.9 hPa | 0 mm | - | 231 W/m² | - |
| 1777584087 | 10° C | 39% | 1017.1 hPa | 0 mm | - | 575 W/m² | - |
| 1777583787 | 10° C | 41% | 1016.7 hPa | 0 mm | - | 319 W/m² | - |
| 1777583481 | 10.56° C | 39% | 1016.7 hPa | 0 mm | - | 198 W/m² | - |
| 1777583175 | 10.56° C | 39% | 1017 hPa | 0 mm | - | 421 W/m² | - |
| 1777582871 | 10° C | 40% | 1016.8 hPa | 0 mm | - | 298 W/m² | - |
| 1777582569 | 10° C | 40% | 1016.9 hPa | 0 mm | - | 418 W/m² | - |
| 1777582264 | 10.56° C | 39% | 1017.1 hPa | 0 mm | - | 666 W/m² | - |
| 1777581961 | 11.11° C | 39% | 1017.2 hPa | 0 mm | - | 635 W/m² | - |
| 1777581657 | 10.56° C | 38% | 1017.3 hPa | 0 mm | - | 697 W/m² | - |
| 1777581350 | 10° C | 40% | 1017.1 hPa | 0 mm | - | 469 W/m² | - |
| 1777581046 | 10° C | 42% | 1017.2 hPa | 0 mm | - | 637 W/m² | - |
* Rain latest hour (hover to see other rain measurements)
** Current wind speed in m/s (hover to see current wind gust speed)